createdAt,value
2023-05-14T00:01:38.260Z,1.00
2023-05-14T00:04:05.441Z,1.00
2023-05-14T00:06:32.277Z,1.00
2023-05-14T00:08:59.055Z,1.00
2023-05-14T00:11:26.053Z,1.00
2023-05-14T00:13:52.868Z,1.00
2023-05-14T00:16:19.701Z,1.00
2023-05-14T00:18:46.653Z,1.00
2023-05-14T00:21:13.509Z,1.00
2023-05-14T00:23:40.372Z,1.00
2023-05-14T00:26:07.231Z,1.00
2023-05-14T00:28:33.984Z,1.00
2023-05-14T00:31:00.882Z,1.00
2023-05-14T00:33:27.868Z,1.00
2023-05-14T00:35:54.720Z,1.00
2023-05-14T00:38:21.587Z,1.00
2023-05-14T00:40:51.976Z,1.00
2023-05-14T00:43:22.722Z,1.00
2023-05-14T00:45:51.192Z,1.00
2023-05-14T00:48:18.271Z,1.00
2023-05-14T00:50:45.500Z,1.00
2023-05-14T00:53:12.458Z,1.00
2023-05-14T00:55:40.781Z,1.00
2023-05-14T00:58:09.959Z,1.00
2023-05-14T01:00:37.318Z,1.00
2023-05-14T01:03:04.937Z,1.00
2023-05-14T01:05:50.824Z,1.00
2023-05-14T01:08:17.623Z,1.00
2023-05-14T01:10:57.780Z,1.00
2023-05-14T01:13:32.273Z,1.00
2023-05-14T01:16:00.347Z,1.00
2023-05-14T01:18:28.216Z,1.00
2023-05-14T01:20:55.089Z,1.00
2023-05-14T01:23:21.905Z,1.00
2023-05-14T01:25:48.675Z,1.00
2023-05-14T01:28:19.781Z,1.00
2023-05-14T01:30:55.743Z,1.00
2023-05-14T01:33:24.849Z,1.00
2023-05-14T01:35:53.774Z,1.00
2023-05-14T01:38:21.624Z,1.00
2023-05-14T01:40:49.196Z,1.00
2023-05-14T01:43:16.425Z,1.00
2023-05-14T01:45:43.963Z,1.00
2023-05-14T01:48:11.085Z,1.00
2023-05-14T01:50:38.074Z,1.00
2023-05-14T01:53:04.898Z,1.00
2023-05-14T01:55:31.720Z,1.00
2023-05-14T01:57:58.639Z,1.00
2023-05-14T02:00:26.231Z,1.00
2023-05-14T02:02:53.349Z,1.00
2023-05-14T02:05:20.326Z,1.00
2023-05-14T02:07:47.123Z,1.00
2023-05-14T02:10:13.986Z,1.00
2023-05-14T02:12:40.807Z,1.00
2023-05-14T02:15:09.059Z,1.00
2023-05-14T02:17:35.910Z,1.00
2023-05-14T02:20:02.930Z,1.00
2023-05-14T02:22:29.713Z,1.00
2023-05-14T02:24:56.537Z,1.00
2023-05-14T02:27:23.305Z,1.00
2023-05-14T02:29:50.055Z,1.00
2023-05-14T02:32:16.931Z,1.00
2023-05-14T02:34:43.684Z,1.00
2023-05-14T02:37:10.469Z,1.00
2023-05-14T02:39:37.315Z,1.00
2023-05-14T02:42:04.252Z,1.00
2023-05-14T02:44:31.933Z,1.00
2023-05-14T02:46:58.780Z,1.00
2023-05-14T02:49:25.750Z,1.00
2023-05-14T02:51:54.412Z,1.00
2023-05-14T02:54:21.255Z,1.00
2023-05-14T02:56:48.433Z,1.00
2023-05-14T02:59:15.411Z,1.00
2023-05-14T03:01:42.760Z,1.00
2023-05-14T03:04:10.122Z,1.00
2023-05-14T03:06:37.008Z,1.00
2023-05-14T03:09:03.936Z,1.00
2023-05-14T03:11:30.829Z,1.00
2023-05-14T03:13:57.584Z,1.00
2023-05-14T03:16:24.505Z,1.00
2023-05-14T03:18:51.466Z,1.00
2023-05-14T03:21:18.366Z,1.00
2023-05-14T03:23:45.189Z,1.00
2023-05-14T03:26:11.992Z,1.00
2023-05-14T03:28:38.768Z,1.00
2023-05-14T03:31:05.724Z,1.00
2023-05-14T03:33:32.563Z,1.00
2023-05-14T03:35:59.315Z,1.00
2023-05-14T03:38:26.112Z,1.00
2023-05-14T03:40:52.880Z,1.00
2023-05-14T03:43:19.726Z,1.00
2023-05-14T03:45:47.138Z,1.00
2023-05-14T03:48:14.064Z,1.00
2023-05-14T03:50:41.170Z,1.00
2023-05-14T03:53:07.974Z,1.00
2023-05-14T03:55:34.726Z,1.00
2023-05-14T03:58:02.551Z,1.00
2023-05-14T04:00:29.424Z,1.00
2023-05-14T04:02:56.472Z,1.00
2023-05-14T04:05:23.369Z,1.00
2023-05-14T04:07:50.226Z,1.00
2023-05-14T04:10:17.035Z,1.00
2023-05-14T04:12:43.795Z,1.00
2023-05-14T04:15:10.920Z,1.00
2023-05-14T04:17:37.755Z,1.00
2023-05-14T04:20:04.777Z,1.00
2023-05-14T04:22:32.288Z,1.00
2023-05-14T04:24:59.133Z,1.00
2023-05-14T04:27:25.970Z,1.00
2023-05-14T04:29:52.783Z,1.00
2023-05-14T04:32:19.549Z,1.00
2023-05-14T04:34:47.342Z,1.00
2023-05-14T04:37:14.286Z,1.00
2023-05-14T04:39:41.100Z,1.00
2023-05-14T04:42:08.246Z,1.00
2023-05-14T04:44:35.586Z,1.00
2023-05-14T04:47:02.925Z,1.00
2023-05-14T04:49:29.847Z,1.00
2023-05-14T04:51:56.665Z,1.00
2023-05-14T04:54:23.477Z,1.00
2023-05-14T04:56:50.820Z,1.00
2023-05-14T04:59:17.688Z,1.00
2023-05-14T05:01:45.577Z,1.00
2023-05-14T05:04:12.804Z,1.00
2023-05-14T05:06:39.924Z,1.00
2023-05-14T05:09:06.697Z,1.00
2023-05-14T05:11:33.461Z,1.00
2023-05-14T05:14:00.241Z,1.00
2023-05-14T05:16:27.117Z,1.00
2023-05-14T05:18:54.076Z,1.00
2023-05-14T05:21:20.891Z,1.00
2023-05-14T05:23:47.626Z,1.00
2023-05-14T05:26:14.408Z,1.00
2023-05-14T05:28:41.226Z,1.00
2023-05-14T05:31:08.276Z,1.00
2023-05-14T05:33:35.346Z,1.00
2023-05-14T05:36:02.145Z,1.00
2023-05-14T05:38:28.894Z,1.00
2023-05-14T05:40:55.658Z,1.00
2023-05-14T05:43:22.480Z,1.00
2023-05-14T05:45:49.231Z,1.00
2023-05-14T05:48:16.153Z,1.00
2023-05-14T05:50:44.905Z,1.00
2023-05-14T05:53:12.540Z,1.00
2023-05-14T05:55:39.370Z,1.00
2023-05-14T05:58:06.154Z,1.00
2023-05-14T06:00:33.252Z,1.00
2023-05-14T06:03:00.132Z,1.00
2023-05-14T06:05:27.132Z,1.00
2023-05-14T06:07:53.895Z,1.00
2023-05-14T06:10:20.948Z,1.00
2023-05-14T06:12:47.778Z,1.00
2023-05-14T06:15:14.565Z,1.00
2023-05-14T06:17:41.604Z,1.00
2023-05-14T06:20:09.116Z,1.00
2023-05-14T06:22:35.953Z,1.00
2023-05-14T06:25:02.727Z,1.00
2023-05-14T06:27:29.600Z,1.00
2023-05-14T06:29:56.500Z,1.00
2023-05-14T06:32:23.439Z,1.00
2023-05-14T06:34:50.394Z,1.00
2023-05-14T06:37:17.202Z,1.00
2023-05-14T06:39:50.316Z,1.00
2023-05-14T06:42:17.410Z,1.00
2023-05-14T06:44:44.460Z,1.00
2023-05-14T06:47:11.289Z,1.00
2023-05-14T06:49:38.272Z,1.00
2023-05-14T06:52:05.188Z,1.00
2023-05-14T06:54:32.081Z,99.90
2023-05-14T06:56:58.864Z,99.90
2023-05-14T06:59:25.669Z,99.90
2023-05-14T07:01:52.558Z,99.90
2023-05-14T07:04:19.648Z,99.90
2023-05-14T07:06:46.506Z,99.90
2023-05-14T07:09:13.390Z,99.90
2023-05-14T07:11:40.204Z,99.90
2023-05-14T07:14:06.947Z,99.90
2023-05-14T07:16:36.164Z,99.90
2023-05-14T07:19:03.069Z,99.90
2023-05-14T07:21:29.897Z,99.90
2023-05-14T07:23:56.667Z,99.90
2023-05-14T07:26:24.619Z,99.90
2023-05-14T07:28:51.426Z,99.90
2023-05-14T07:31:18.296Z,94.20
2023-05-14T07:33:45.199Z,25.80
2023-05-14T07:36:12.091Z,35.60
2023-05-14T07:38:38.881Z,27.50
2023-05-14T07:41:05.764Z,46.00
2023-05-14T07:43:32.582Z,54.80
2023-05-14T07:45:59.359Z,28.10
2023-05-14T07:48:26.322Z,6.20
2023-05-14T07:50:53.142Z,25.80
2023-05-14T07:53:19.888Z,32.20
2023-05-14T07:55:48.484Z,1.00
2023-05-14T07:58:15.732Z,1.00
2023-05-14T08:00:42.478Z,1.00
2023-05-14T08:03:09.433Z,1.00
2023-05-14T08:05:36.414Z,1.00
2023-05-14T08:08:03.325Z,1.00
2023-05-14T08:12:57.571Z,1.00
2023-05-14T08:15:26.456Z,1.00
2023-05-14T08:17:55.055Z,1.00
2023-05-14T08:20:22.730Z,1.00
2023-05-14T08:22:49.747Z,1.00
2023-05-14T08:25:16.590Z,1.00
2023-05-14T08:27:43.389Z,1.00
2023-05-14T08:30:10.346Z,1.00
2023-05-14T08:32:38.760Z,1.00
2023-05-14T08:35:05.804Z,1.00
2023-05-14T08:37:32.628Z,1.00
2023-05-14T08:39:59.448Z,1.00
2023-05-14T08:42:27.036Z,1.00
2023-05-14T08:44:57.177Z,1.00
2023-05-14T08:47:24.174Z,1.00
2023-05-14T08:50:04.595Z,1.00
2023-05-14T08:52:31.757Z,1.00
2023-05-14T08:55:04.617Z,1.00
2023-05-14T08:57:32.839Z,1.00
2023-05-14T09:00:00.614Z,1.00
2023-05-14T09:02:34.105Z,1.00
2023-05-14T09:05:01.998Z,1.00
2023-05-14T09:07:29.278Z,1.00
2023-05-14T09:09:56.340Z,1.00
2023-05-14T09:12:23.326Z,1.00
2023-05-14T09:14:51.017Z,1.00
2023-05-14T09:17:18.296Z,1.00
2023-05-14T09:19:47.864Z,1.00
2023-05-14T09:41:54.851Z,1.00
2023-05-14T09:44:22.078Z,1.00
2023-05-14T09:46:49.561Z,1.00
2023-05-14T09:49:16.434Z,1.00
2023-05-14T09:51:43.188Z,1.00
2023-05-14T09:54:10.182Z,1.00
2023-05-14T09:56:37.331Z,1.00
2023-05-14T09:59:04.342Z,1.00
2023-05-14T10:01:33.002Z,1.00
2023-05-14T10:04:00.393Z,1.00
2023-05-14T10:06:28.593Z,1.00
2023-05-14T10:08:56.545Z,1.00
2023-05-14T10:11:28.550Z,1.00
2023-05-14T10:14:01.450Z,1.00
2023-05-14T10:16:32.078Z,1.00
2023-05-14T10:19:01.492Z,1.00
2023-05-14T10:21:29.947Z,1.00
2023-05-14T10:23:56.754Z,1.00
2023-05-14T10:26:24.152Z,1.00
2023-05-14T10:28:51.001Z,1.00
2023-05-14T10:31:17.830Z,1.00
2023-05-14T10:33:48.257Z,99.90
2023-05-14T10:36:15.031Z,99.90
2023-05-14T10:38:41.846Z,99.90
2023-05-14T10:41:12.965Z,99.90
2023-05-14T10:43:40.373Z,99.90
2023-05-14T10:46:08.119Z,99.90
2023-05-14T10:48:35.030Z,99.90
2023-05-14T10:51:02.724Z,99.90
2023-05-14T10:53:33.103Z,99.90
2023-05-14T10:56:04.518Z,99.90
2023-05-14T10:58:33.941Z,99.90
2023-05-14T11:01:01.454Z,99.90
2023-05-14T11:03:32.023Z,99.90
2023-05-14T11:06:01.763Z,99.90
2023-05-14T11:08:29.476Z,99.90
2023-05-14T11:10:56.859Z,99.90
2023-05-14T11:13:23.666Z,99.90
2023-05-14T11:15:50.718Z,99.90
2023-05-14T11:20:44.954Z,1.00
2023-05-14T11:23:11.692Z,1.00
2023-05-14T11:25:38.411Z,1.00
2023-05-14T11:28:05.189Z,1.00
2023-05-14T11:30:31.940Z,1.00
2023-05-14T11:33:01.191Z,1.00
2023-05-14T11:35:29.113Z,1.00
2023-05-14T11:37:55.866Z,1.00
2023-05-14T11:40:22.897Z,1.00
2023-05-14T11:42:53.701Z,1.00
2023-05-14T11:45:27.378Z,1.00
2023-05-14T11:47:54.969Z,1.00
2023-05-14T11:50:22.530Z,1.00
2023-05-14T11:52:50.883Z,1.00
2023-05-14T11:55:17.989Z,7.70
2023-05-14T11:57:44.876Z,30.40
2023-05-14T12:00:16.899Z,89.30
2023-05-14T12:02:43.984Z,63.20
2023-05-14T12:05:12.973Z,39.50
2023-05-14T12:07:39.767Z,44.00
2023-05-14T12:10:06.787Z,99.90
2023-05-14T12:12:39.518Z,99.90
2023-05-14T12:15:13.598Z,99.90
2023-05-14T12:17:40.521Z,99.90
2023-05-14T12:20:11.145Z,99.90
2023-05-14T12:22:38.365Z,99.90
2023-05-14T12:25:11.251Z,99.90
2023-05-14T12:27:38.090Z,99.90
2023-05-14T12:30:20.599Z,99.90
2023-05-14T12:32:53.656Z,99.90
2023-05-14T12:35:21.345Z,99.90
2023-05-14T12:37:48.297Z,99.90
2023-05-14T12:40:15.095Z,99.90
2023-05-14T12:42:41.863Z,99.90
2023-05-14T12:45:08.903Z,99.90
2023-05-14T12:47:37.223Z,99.90
2023-05-14T12:50:04.666Z,99.90
2023-05-14T12:55:01.568Z,99.90
2023-05-14T12:57:29.961Z,99.90
2023-05-14T12:59:57.666Z,99.90
2023-05-14T13:02:24.754Z,99.90
2023-05-14T13:04:51.563Z,99.90
2023-05-14T13:07:18.598Z,99.90
2023-05-14T13:09:45.782Z,99.90
2023-05-14T13:12:12.785Z,99.90
2023-05-14T13:14:39.551Z,99.90
2023-05-14T13:17:08.274Z,99.90
2023-05-14T13:19:35.162Z,99.90
2023-05-14T13:22:02.032Z,99.90
2023-05-14T13:24:28.932Z,99.90
2023-05-14T13:26:55.964Z,99.90
2023-05-14T13:29:22.938Z,99.90
2023-05-14T13:31:50.106Z,99.90
2023-05-14T13:34:16.961Z,99.90
2023-05-14T13:36:43.837Z,99.90
2023-05-14T13:39:14.131Z,99.90
2023-05-14T13:41:41.421Z,99.90
2023-05-14T13:44:08.325Z,99.90
2023-05-14T13:49:02.365Z,99.90
2023-05-14T13:51:29.094Z,99.90
2023-05-14T13:53:56.200Z,99.90
2023-05-14T13:56:23.305Z,99.90
2023-05-14T13:58:50.105Z,99.90
2023-05-14T14:01:16.985Z,99.90
2023-05-14T14:03:43.816Z,99.90
2023-05-14T14:06:10.904Z,99.90
2023-05-14T14:08:37.637Z,99.90
2023-05-14T14:11:04.545Z,99.90
2023-05-14T14:13:31.294Z,99.90
2023-05-14T14:15:58.447Z,99.90
2023-05-14T14:18:25.791Z,99.90
2023-05-14T14:20:52.725Z,99.90
2023-05-14T14:23:19.789Z,99.90
2023-05-14T14:25:47.111Z,99.90
2023-05-14T14:28:14.034Z,99.90
2023-05-14T14:30:41.170Z,99.90
2023-05-14T14:33:08.121Z,99.90
2023-05-14T14:35:35.875Z,99.90
2023-05-14T14:38:02.857Z,99.90
2023-05-14T14:40:29.932Z,99.90
2023-05-14T14:42:56.717Z,99.90
2023-05-14T14:45:23.693Z,99.90
2023-05-14T14:47:50.935Z,99.90
2023-05-14T14:50:17.811Z,99.90
2023-05-14T14:52:46.038Z,1.00
2023-05-14T14:55:13.164Z,1.00
2023-05-14T14:57:40.026Z,1.00
2023-05-14T15:00:07.482Z,1.00
2023-05-14T15:02:34.855Z,1.00
2023-05-14T15:05:01.805Z,1.00
2023-05-14T15:07:32.826Z,1.00
2023-05-14T15:09:59.748Z,1.00
2023-05-14T15:12:26.600Z,1.00
2023-05-14T15:14:53.414Z,1.00
2023-05-14T15:17:20.403Z,1.00
2023-05-14T15:19:47.653Z,1.00
2023-05-14T15:22:14.435Z,99.90
2023-05-14T15:24:41.698Z,99.90
2023-05-14T15:27:08.451Z,99.90
2023-05-14T15:32:27.525Z,99.90
2023-05-14T15:35:02.178Z,99.90
2023-05-14T15:37:35.749Z,99.90
2023-05-14T15:40:03.214Z,99.90
2023-05-14T15:42:30.773Z,99.90
2023-05-14T15:44:57.613Z,99.90
2023-05-14T15:47:24.570Z,1.00
2023-05-14T15:49:51.352Z,1.00
2023-05-14T15:52:18.246Z,1.00
2023-05-14T15:54:46.494Z,1.00
2023-05-14T15:57:13.488Z,1.00
2023-05-14T15:59:40.254Z,1.00
2023-05-14T16:02:07.612Z,1.00
2023-05-14T16:04:34.557Z,1.00
2023-05-14T16:07:06.350Z,1.00
2023-05-14T16:09:35.198Z,1.00
2023-05-14T16:12:02.115Z,1.00
2023-05-14T16:14:28.907Z,1.00
2023-05-14T16:16:56.429Z,1.00
2023-05-14T16:19:23.631Z,1.00
2023-05-14T16:21:50.445Z,1.00
2023-05-14T16:24:17.940Z,1.00
2023-05-14T16:26:44.761Z,1.00
2023-05-14T16:29:11.703Z,99.90
2023-05-14T16:31:38.633Z,1.00
2023-05-14T16:34:05.419Z,99.90
2023-05-14T16:36:32.371Z,99.90
2023-05-14T16:39:07.195Z,1.00
2023-05-14T16:41:35.807Z,99.90
2023-05-14T16:44:02.914Z,99.90
2023-05-14T16:46:30.648Z,99.90
2023-05-14T16:48:57.747Z,99.90
2023-05-14T16:51:24.579Z,99.90
2023-05-14T16:53:52.082Z,99.90
2023-05-14T16:56:19.401Z,99.90
2023-05-14T16:58:46.170Z,99.90
2023-05-14T17:01:12.999Z,99.90
2023-05-14T17:03:39.870Z,99.90
2023-05-14T17:06:07.207Z,99.90
2023-05-14T17:08:35.620Z,99.90
2023-05-14T17:11:05.688Z,99.90
2023-05-14T17:13:33.280Z,99.90
2023-05-14T17:16:00.661Z,99.90
2023-05-14T17:18:27.819Z,99.90
2023-05-14T17:20:55.264Z,99.90
2023-05-14T17:23:22.556Z,99.90
2023-05-14T17:25:49.455Z,99.90
2023-05-14T17:28:16.352Z,99.90
2023-05-14T17:30:43.949Z,99.90
2023-05-14T17:33:11.624Z,99.90
2023-05-14T17:35:38.757Z,99.90
2023-05-14T17:38:05.588Z,99.90
2023-05-14T17:40:32.451Z,99.90
2023-05-14T17:42:59.548Z,99.90
2023-05-14T17:45:26.733Z,99.90
2023-05-14T17:47:53.790Z,99.90
2023-05-14T17:50:20.689Z,99.90
2023-05-14T17:52:47.716Z,99.90
2023-05-14T17:55:14.673Z,99.90
2023-05-14T17:57:42.283Z,99.90
2023-05-14T18:00:09.454Z,99.90
2023-05-14T18:02:36.285Z,1.00
2023-05-14T18:05:03.204Z,1.00
2023-05-14T18:07:30.212Z,1.00
2023-05-14T18:09:57.163Z,1.00
2023-05-14T18:12:25.715Z,1.00
2023-05-14T18:14:52.495Z,1.00
2023-05-14T18:17:19.368Z,1.00
2023-05-14T18:19:46.252Z,1.00
2023-05-14T18:22:13.045Z,1.00
2023-05-14T18:24:39.799Z,1.00
2023-05-14T18:27:06.699Z,1.00
2023-05-14T18:29:33.531Z,1.00
2023-05-14T18:32:00.482Z,1.00
2023-05-14T18:34:27.361Z,1.00
2023-05-14T18:36:54.256Z,1.00
2023-05-14T18:39:21.041Z,1.00
2023-05-14T18:41:47.906Z,1.00
2023-05-14T18:44:14.735Z,1.00
2023-05-14T18:46:41.680Z,1.00
2023-05-14T18:49:08.609Z,1.00
2023-05-14T18:51:35.378Z,1.00
2023-05-14T18:54:02.191Z,1.00
2023-05-14T18:56:29.322Z,1.00
2023-05-14T18:58:56.112Z,1.00
2023-05-14T19:01:25.576Z,1.00
2023-05-14T19:03:53.089Z,1.00
2023-05-14T19:06:20.174Z,1.00
2023-05-14T19:08:47.166Z,1.00
2023-05-14T19:11:13.983Z,1.00
2023-05-14T19:13:41.321Z,1.00
2023-05-14T19:16:08.639Z,1.00
2023-05-14T19:18:36.028Z,1.00
2023-05-14T19:21:03.523Z,1.00
2023-05-14T19:23:31.941Z,1.00
2023-05-14T19:25:59.384Z,1.00
2023-05-14T19:28:26.806Z,1.00
2023-05-14T19:30:54.293Z,1.00
2023-05-14T19:33:22.014Z,1.00
2023-05-14T19:35:49.591Z,1.00
2023-05-14T19:38:17.143Z,1.00
2023-05-14T19:40:45.215Z,1.00
2023-05-14T19:43:12.873Z,1.00
2023-05-14T19:45:43.385Z,1.00
2023-05-14T19:48:10.938Z,1.00
2023-05-14T19:50:38.499Z,1.00
2023-05-14T19:53:06.086Z,1.00
2023-05-14T19:55:33.657Z,1.00
2023-05-14T19:58:01.373Z,1.00
2023-05-14T20:00:28.942Z,1.00
2023-05-14T20:03:00.006Z,1.00
2023-05-14T20:05:27.795Z,1.00
2023-05-14T20:07:54.680Z,1.00
2023-05-14T20:10:21.639Z,1.00
2023-05-14T20:12:48.473Z,1.00
2023-05-14T20:15:15.334Z,1.00
2023-05-14T20:17:42.155Z,1.00
2023-05-14T20:20:10.070Z,1.00
2023-05-14T20:22:38.322Z,1.00
2023-05-14T20:25:05.522Z,1.00
2023-05-14T20:27:32.722Z,1.00
2023-05-14T20:29:59.465Z,1.00
2023-05-14T20:32:26.708Z,1.00
2023-05-14T20:34:53.767Z,1.00
2023-05-14T20:37:20.544Z,1.00
2023-05-14T20:39:47.622Z,1.00
2023-05-14T20:42:14.525Z,1.00
2023-05-14T20:44:41.288Z,1.00
2023-05-14T20:47:08.120Z,1.00
2023-05-14T20:49:34.872Z,1.00
2023-05-14T20:52:01.669Z,1.00
2023-05-14T20:54:28.534Z,1.00
2023-05-14T20:56:55.431Z,1.00
2023-05-14T20:59:22.722Z,1.00
2023-05-14T21:01:50.092Z,1.00
2023-05-14T21:04:17.028Z,1.00
2023-05-14T21:06:44.008Z,1.00
2023-05-14T21:09:10.984Z,1.00
2023-05-14T21:11:37.801Z,1.00
2023-05-14T21:14:04.707Z,1.00
2023-05-14T21:16:31.626Z,1.00
2023-05-14T21:18:58.568Z,1.00
2023-05-14T21:21:26.020Z,1.00
2023-05-14T21:23:52.913Z,1.00
2023-05-14T21:26:21.792Z,1.00
2023-05-14T21:28:48.758Z,1.00
2023-05-14T21:31:15.552Z,1.00
2023-05-14T21:33:42.290Z,1.00
2023-05-14T21:36:09.413Z,1.00
2023-05-14T21:38:36.430Z,1.00
2023-05-14T21:41:03.227Z,1.00
2023-05-14T21:43:30.026Z,1.00
2023-05-14T21:45:56.967Z,1.00
2023-05-14T21:48:24.093Z,1.00
2023-05-14T21:50:51.060Z,1.00
2023-05-14T21:53:17.959Z,1.00
2023-05-14T21:55:44.791Z,1.00
2023-05-14T21:58:11.606Z,1.00
2023-05-14T22:00:38.389Z,1.00
2023-05-14T22:03:05.247Z,1.00
2023-05-14T22:05:32.169Z,1.00
2023-05-14T22:07:58.996Z,1.00
2023-05-14T22:10:25.808Z,1.00
2023-05-14T22:12:52.565Z,1.00
2023-05-14T22:15:19.492Z,1.00
2023-05-14T22:17:47.202Z,1.00
2023-05-14T22:20:14.224Z,1.00
2023-05-14T22:22:41.161Z,1.00
2023-05-14T22:25:08.191Z,1.00
2023-05-14T22:27:34.948Z,1.00
2023-05-14T22:30:01.777Z,1.00
2023-05-14T22:32:28.562Z,1.00
2023-05-14T22:34:55.783Z,1.00
2023-05-14T22:37:22.639Z,1.00
2023-05-14T22:39:49.401Z,1.00
2023-05-14T22:42:16.138Z,1.00
2023-05-14T22:44:42.910Z,1.00
2023-05-14T22:47:09.708Z,1.00
2023-05-14T22:49:36.479Z,1.00
2023-05-14T22:52:03.330Z,1.00
2023-05-14T22:54:30.068Z,1.00
2023-05-14T22:56:57.100Z,1.00
2023-05-14T22:59:24.069Z,1.00
2023-05-14T23:01:51.115Z,1.00
2023-05-14T23:04:18.013Z,1.00
2023-05-14T23:06:44.951Z,1.00
2023-05-14T23:09:11.756Z,1.00
2023-05-14T23:11:38.598Z,1.00
2023-05-14T23:14:05.473Z,1.00
2023-05-14T23:16:32.344Z,1.00
2023-05-14T23:18:59.178Z,1.00
2023-05-14T23:21:26.093Z,1.00
2023-05-14T23:23:52.878Z,1.00
2023-05-14T23:26:19.684Z,1.00
2023-05-14T23:28:47.521Z,1.00
2023-05-14T23:31:14.393Z,1.00
2023-05-14T23:33:41.191Z,1.00
2023-05-14T23:36:08.256Z,1.00
2023-05-14T23:38:35.092Z,1.00
2023-05-14T23:41:01.918Z,1.00
2023-05-14T23:43:28.753Z,1.00
2023-05-14T23:45:58.735Z,1.00
2023-05-14T23:48:25.661Z,1.00
2023-05-14T23:50:52.463Z,1.00
2023-05-14T23:53:19.221Z,1.00
2023-05-14T23:55:46.095Z,1.00
2023-05-14T23:58:12.902Z,1.00
